createdAt,value
2022-08-05T00:00:17.357Z,20.57
2022-08-05T00:02:50.557Z,20.43
2022-08-05T00:06:02.663Z,20.34
2022-08-05T00:08:05.150Z,20.32
2022-08-05T00:10:46.335Z,20.20
2022-08-05T00:13:18.684Z,20.08
2022-08-05T00:15:55.271Z,20.00
2022-08-05T00:18:24.929Z,19.95
2022-08-05T00:20:51.796Z,19.92
2022-08-05T00:23:44.582Z,19.86
2022-08-05T00:26:07.157Z,19.74
2022-08-05T00:28:34.776Z,19.65
2022-08-05T00:31:04.369Z,19.60
2022-08-05T00:34:54.739Z,19.52
2022-08-05T00:37:11.568Z,19.55
2022-08-05T00:39:05.526Z,19.52
2022-08-05T00:41:51.639Z,19.42
2022-08-05T00:44:23.317Z,19.45
2022-08-05T00:47:03.973Z,19.30
2022-08-05T00:49:51.033Z,19.16
2022-08-05T00:52:28.396Z,19.19
2022-08-05T00:54:55.992Z,19.24
2022-08-05T00:57:25.136Z,19.15
2022-08-05T00:59:52.174Z,19.19
2022-08-05T01:02:18.875Z,19.19
2022-08-05T01:04:45.617Z,19.15
2022-08-05T01:07:31.589Z,19.04
2022-08-05T01:09:58.866Z,19.00
2022-08-05T01:12:29.808Z,19.01
2022-08-05T01:15:35.803Z,19.05
2022-08-05T01:18:03.493Z,18.96
2022-08-05T01:21:02.652Z,18.92
2022-08-05T01:23:35.580Z,18.80
2022-08-05T01:26:05.133Z,18.83
2022-08-05T01:28:53.912Z,18.83
2022-08-05T01:31:26.911Z,18.76
2022-08-05T01:34:01.824Z,18.66
2022-08-05T01:36:32.949Z,18.74
2022-08-05T01:39:01.120Z,18.64
2022-08-05T01:41:31.799Z,18.65
2022-08-05T01:44:00.920Z,18.55
2022-08-05T01:46:42.904Z,18.51
2022-08-05T01:49:23.631Z,18.41
2022-08-05T01:51:54.955Z,18.40
2022-08-05T01:54:25.695Z,18.40
2022-08-05T01:58:10.465Z,18.32
2022-08-05T01:59:47.381Z,18.36
2022-08-05T02:02:16.016Z,18.27
2022-08-05T02:04:49.551Z,18.25
2022-08-05T02:07:22.071Z,18.32
2022-08-05T02:09:50.394Z,18.31
2022-08-05T02:12:20.737Z,18.26
2022-08-05T02:14:57.800Z,18.17
2022-08-05T02:18:33.038Z,18.12
2022-08-05T02:20:23.264Z,17.93
2022-08-05T02:23:01.731Z,18.05
2022-08-05T02:25:49.079Z,18.05
2022-08-05T02:28:28.328Z,17.96
2022-08-05T02:31:01.085Z,17.92
2022-08-05T02:33:35.944Z,17.88
2022-08-05T02:36:09.461Z,17.89
2022-08-05T02:38:37.538Z,17.78
2022-08-05T02:41:14.708Z,17.74
2022-08-05T02:44:06.229Z,17.83
2022-08-05T02:46:33.404Z,17.84
2022-08-05T02:49:01.874Z,17.72
2022-08-05T02:52:03.986Z,17.75
2022-08-05T02:54:35.844Z,17.74
2022-08-05T02:57:10.404Z,17.69
2022-08-05T02:59:55.358Z,17.72
2022-08-05T03:02:29.026Z,17.72
2022-08-05T03:04:58.048Z,17.62
2022-08-05T03:07:59.413Z,17.53
2022-08-05T03:10:22.033Z,17.70
2022-08-05T03:12:52.954Z,17.57
2022-08-05T03:15:20.548Z,17.60
2022-08-05T03:17:47.281Z,17.65
2022-08-05T03:20:14.003Z,17.65
2022-08-05T03:22:46.919Z,17.57
2022-08-05T03:25:34.055Z,17.66
2022-08-05T03:28:08.470Z,17.64
2022-08-05T03:30:38.342Z,17.67
2022-08-05T03:33:08.318Z,17.67
2022-08-05T03:35:41.044Z,17.79
2022-08-05T03:38:11.463Z,17.73
2022-08-05T03:40:47.194Z,17.73
2022-08-05T03:43:59.004Z,17.70
2022-08-05T03:46:02.831Z,17.81
2022-08-05T03:48:35.671Z,17.90
2022-08-05T03:52:35.099Z,18.01
2022-08-05T03:55:54.744Z,18.09
2022-08-05T03:56:52.721Z,18.10
2022-08-05T03:59:46.830Z,18.17
2022-08-05T04:02:17.436Z,18.26
2022-08-05T04:05:05.674Z,18.27
2022-08-05T04:07:57.511Z,18.50
2022-08-05T04:10:27.666Z,18.51
2022-08-05T04:12:55.598Z,18.60
2022-08-05T04:15:26.150Z,18.76
2022-08-05T04:17:57.397Z,18.96
2022-08-05T04:20:26.746Z,19.39
2022-08-05T04:22:53.372Z,20.21
2022-08-05T04:25:20.281Z,21.23
2022-08-05T04:28:11.355Z,21.78
2022-08-05T04:30:39.354Z,22.51
2022-08-05T04:33:06.332Z,23.42
2022-08-05T04:36:11.290Z,24.27
2022-08-05T04:38:20.982Z,24.63
2022-08-05T04:40:50.749Z,24.70
2022-08-05T04:43:17.775Z,25.08
2022-08-05T04:45:55.101Z,25.89
2022-08-05T04:48:27.378Z,25.99
2022-08-05T04:51:01.885Z,26.26
2022-08-05T04:53:33.594Z,25.64
2022-08-05T04:56:33.468Z,25.98
2022-08-05T04:58:49.423Z,26.30
2022-08-05T05:01:33.769Z,26.97
2022-08-05T05:04:02.955Z,28.45
2022-08-05T05:06:38.725Z,30.31
2022-08-05T05:09:07.830Z,30.98
2022-08-05T05:11:54.042Z,30.45
2022-08-05T05:14:28.013Z,32.73
2022-08-05T05:17:00.168Z,33.68
2022-08-05T05:19:36.554Z,34.75
2022-08-05T05:22:24.137Z,35.17
2022-08-05T05:24:59.452Z,34.32
2022-08-05T05:27:45.221Z,34.93
2022-08-05T05:30:31.143Z,34.91
2022-08-05T05:33:03.802Z,33.45
2022-08-05T05:35:42.586Z,32.26
2022-08-05T05:38:13.583Z,35.04
2022-08-05T05:40:50.029Z,34.86
2022-08-05T05:43:27.863Z,36.96
2022-08-05T05:46:10.673Z,36.67
2022-08-05T05:48:37.531Z,36.94
2022-08-05T05:51:14.862Z,37.60
2022-08-05T05:53:54.110Z,35.43
2022-08-05T05:56:33.004Z,37.49
2022-08-05T05:59:08.044Z,37.43
2022-08-05T06:01:40.583Z,36.30
2022-08-05T06:04:24.160Z,37.04
2022-08-05T06:06:50.817Z,38.23
2022-08-05T06:09:25.655Z,39.68
2022-08-05T06:11:59.184Z,36.94
2022-08-05T06:14:29.554Z,37.81
2022-08-05T06:16:56.809Z,38.08
2022-08-05T06:19:26.239Z,39.19
2022-08-05T06:22:00.969Z,37.18
2022-08-05T06:24:27.601Z,40.27
2022-08-05T06:26:54.210Z,39.28
2022-08-05T06:29:43.017Z,39.95
2022-08-05T06:32:25.343Z,40.53
2022-08-05T06:34:58.369Z,38.89
2022-08-05T06:37:56.635Z,39.65
2022-08-05T06:40:14.020Z,39.87
2022-08-05T06:42:45.768Z,39.05
2022-08-05T06:45:20.754Z,39.27
2022-08-05T06:48:44.270Z,39.95
2022-08-05T06:50:35.306Z,40.05
2022-08-05T06:53:11.236Z,39.56
2022-08-05T06:55:38.439Z,41.00
2022-08-05T06:58:29.873Z,41.53
2022-08-05T07:00:58.544Z,42.77
2022-08-05T07:03:32.409Z,40.14
2022-08-05T07:06:06.137Z,40.13
2022-08-05T07:08:41.989Z,40.47
2022-08-05T07:11:15.550Z,40.86
2022-08-05T07:14:01.750Z,39.88
2022-08-05T07:17:56.413Z,42.02
2022-08-05T07:22:27.654Z,41.98
2022-08-05T07:24:56.504Z,42.12
2022-08-05T07:27:23.311Z,43.48
2022-08-05T07:30:24.007Z,39.50
2022-08-05T07:32:43.620Z,41.37
2022-08-05T07:35:55.926Z,40.72
2022-08-05T07:38:00.900Z,41.66
2022-08-05T07:40:32.962Z,40.92
2022-08-05T07:43:04.640Z,41.89
2022-08-05T07:45:58.156Z,41.36
2022-08-05T07:49:03.026Z,41.96
2022-08-05T07:51:08.567Z,40.29
2022-08-05T07:53:51.611Z,39.25
2022-08-05T07:56:38.993Z,40.11
2022-08-05T07:59:05.254Z,41.16
2022-08-05T08:01:35.481Z,41.99
2022-08-05T08:04:34.347Z,41.62
2022-08-05T08:07:07.218Z,42.08
2022-08-05T08:09:34.394Z,41.15
2022-08-05T08:12:09.021Z,40.46
2022-08-05T08:14:46.812Z,42.00
2022-08-05T08:17:21.376Z,40.40
2022-08-05T08:20:21.081Z,41.23
2022-08-05T08:22:35.526Z,40.46
2022-08-05T08:25:02.871Z,40.42
2022-08-05T08:27:39.980Z,40.18
2022-08-05T08:30:19.086Z,39.90
2022-08-05T08:32:56.939Z,39.25
2022-08-05T08:35:26.586Z,40.35
2022-08-05T08:37:54.413Z,41.47
2022-08-05T08:40:23.858Z,41.44
2022-08-05T08:42:52.443Z,37.60
2022-08-05T08:45:26.524Z,39.37
2022-08-05T08:48:10.697Z,40.06
2022-08-05T08:51:03.722Z,39.95
2022-08-05T08:53:40.223Z,39.87
2022-08-05T08:56:11.135Z,40.16
2022-08-05T08:58:44.636Z,39.45
2022-08-05T09:01:18.883Z,39.38
2022-08-05T09:03:55.459Z,39.54
2022-08-05T09:06:29.844Z,38.77
2022-08-05T09:09:00.184Z,38.78
2022-08-05T09:11:50.748Z,38.95
2022-08-05T09:14:56.618Z,38.41
2022-08-05T09:17:03.520Z,39.14
2022-08-05T09:19:36.799Z,37.54
2022-08-05T09:22:32.080Z,38.70
2022-08-05T09:25:02.248Z,39.04
2022-08-05T09:28:04.025Z,39.61
2022-08-05T09:30:34.426Z,39.67
2022-08-05T09:33:04.962Z,38.58
2022-08-05T09:35:31.717Z,37.41
2022-08-05T09:38:12.237Z,37.54
2022-08-05T09:40:52.212Z,36.74
2022-08-05T09:43:41.566Z,37.45
2022-08-05T09:46:33.266Z,38.78
2022-08-05T09:49:18.953Z,38.67
2022-08-05T09:51:48.806Z,38.40
2022-08-05T09:54:21.404Z,39.05
2022-08-05T09:56:57.599Z,37.42
2022-08-05T09:59:28.090Z,39.13
2022-08-05T10:01:57.724Z,38.71
2022-08-05T10:04:38.538Z,38.80
2022-08-05T10:07:20.051Z,38.03
2022-08-05T10:10:15.324Z,38.64
2022-08-05T10:12:50.154Z,38.13
2022-08-05T10:15:21.828Z,37.71
2022-08-05T10:18:16.946Z,38.01
2022-08-05T10:20:51.271Z,38.83
2022-08-05T10:23:55.479Z,38.69
2022-08-05T10:26:14.417Z,38.13
2022-08-05T10:28:44.933Z,38.64
2022-08-05T10:32:54.508Z,38.26
2022-08-05T10:34:08.023Z,38.49
2022-08-05T10:36:40.558Z,37.49
2022-08-05T10:39:24.814Z,38.95
2022-08-05T10:42:33.924Z,38.49
2022-08-05T10:45:02.065Z,37.85
2022-08-05T10:48:27.600Z,39.16
2022-08-05T10:51:00.536Z,38.80
2022-08-05T10:53:45.307Z,38.90
2022-08-05T10:56:25.655Z,39.08
2022-08-05T10:58:55.823Z,38.80
2022-08-05T11:01:55.601Z,38.10
2022-08-05T11:04:26.303Z,39.04
2022-08-05T11:07:05.892Z,39.78
2022-08-05T11:09:46.684Z,38.91
2022-08-05T11:12:41.265Z,39.11
2022-08-05T11:16:01.308Z,39.26
2022-08-05T11:18:30.031Z,39.11
2022-08-05T11:20:59.440Z,38.96
2022-08-05T11:24:03.181Z,38.15
2022-08-05T11:26:29.154Z,38.05
2022-08-05T11:29:12.076Z,37.90
2022-08-05T11:31:56.929Z,38.11
2022-08-05T11:34:51.303Z,38.97
2022-08-05T11:38:36.741Z,37.58
2022-08-05T11:41:34.637Z,38.37
2022-08-05T11:44:07.606Z,38.81
2022-08-05T11:47:10.297Z,38.90
2022-08-05T11:49:26.358Z,38.16
2022-08-05T11:51:53.568Z,38.48
2022-08-05T11:54:34.533Z,38.67
2022-08-05T11:57:08.607Z,38.44
2022-08-05T11:59:51.137Z,38.63
2022-08-05T12:02:24.475Z,37.90
2022-08-05T12:04:59.855Z,37.87
2022-08-05T12:08:09.296Z,38.44
2022-08-05T12:10:23.002Z,37.87
2022-08-05T12:12:59.202Z,39.16
2022-08-05T12:15:35.775Z,39.19
2022-08-05T12:18:10.659Z,39.02
2022-08-05T12:20:38.878Z,37.61
2022-08-05T12:23:12.546Z,37.14
2022-08-05T12:25:56.778Z,38.47
2022-08-05T12:28:37.878Z,39.13
2022-08-05T12:31:05.259Z,38.89
2022-08-05T12:33:36.294Z,38.93
2022-08-05T12:36:07.891Z,38.80
2022-08-05T12:38:39.746Z,39.20
2022-08-05T12:41:16.200Z,39.51
2022-08-05T12:43:55.708Z,38.90
2022-08-05T12:46:31.494Z,38.69
2022-08-05T12:49:13.628Z,38.98
2022-08-05T12:52:12.789Z,38.57
2022-08-05T12:54:49.767Z,38.98
2022-08-05T12:57:17.274Z,39.24
2022-08-05T13:01:56.745Z,38.59
2022-08-05T13:02:36.602Z,38.20
2022-08-05T13:05:06.650Z,39.02
2022-08-05T13:07:59.252Z,39.44
2022-08-05T13:10:20.451Z,39.35
2022-08-05T13:12:51.233Z,38.61
2022-08-05T13:15:35.980Z,38.77
2022-08-05T13:18:19.426Z,39.21
2022-08-05T13:20:49.385Z,39.63
2022-08-05T13:23:22.168Z,39.64
2022-08-05T13:25:52.543Z,40.03
2022-08-05T13:28:27.239Z,39.31
2022-08-05T13:30:53.921Z,39.55
2022-08-05T13:34:24.127Z,40.03
2022-08-05T13:36:10.401Z,38.25
2022-08-05T13:38:38.490Z,38.83
2022-08-05T13:41:09.492Z,39.33
2022-08-05T13:43:45.618Z,39.37
2022-08-05T13:46:50.744Z,38.86
2022-08-05T13:49:13.633Z,39.29
2022-08-05T13:51:46.189Z,38.98
2022-08-05T13:54:16.013Z,39.19
2022-08-05T13:56:51.158Z,38.61
2022-08-05T13:59:30.697Z,38.67
2022-08-05T14:02:00.292Z,38.20
2022-08-05T14:04:51.827Z,38.76
2022-08-05T14:08:00.162Z,38.73
2022-08-05T14:10:19.027Z,38.15
2022-08-05T14:12:54.735Z,38.52
2022-08-05T14:16:04.343Z,39.13
2022-08-05T14:18:14.645Z,38.83
2022-08-05T14:20:47.343Z,38.88
2022-08-05T14:23:25.004Z,38.97
2022-08-05T14:25:58.967Z,38.38
2022-08-05T14:28:28.135Z,38.19
2022-08-05T14:30:55.904Z,38.74
2022-08-05T14:33:23.701Z,38.82
2022-08-05T14:35:52.070Z,38.15
2022-08-05T14:38:27.761Z,38.56
2022-08-05T14:41:00.004Z,38.44
2022-08-05T14:44:02.552Z,38.03
2022-08-05T14:46:13.475Z,37.92
2022-08-05T14:48:40.157Z,38.37
2022-08-05T14:51:06.844Z,38.36
2022-08-05T14:53:44.353Z,38.04
2022-08-05T14:56:11.860Z,38.30
2022-08-05T14:58:39.868Z,38.79
2022-08-05T15:01:15.988Z,38.30
2022-08-05T15:03:43.655Z,38.23
2022-08-05T15:06:15.421Z,37.81
2022-08-05T15:09:01.123Z,37.80
2022-08-05T15:11:53.254Z,38.11
2022-08-05T15:14:34.301Z,37.85
2022-08-05T15:17:05.438Z,37.15
2022-08-05T15:19:41.244Z,35.92
2022-08-05T15:22:16.081Z,37.00
2022-08-05T15:24:44.180Z,36.59
2022-08-05T15:27:11.467Z,36.52
2022-08-05T15:29:42.100Z,36.56
2022-08-05T15:32:09.000Z,36.33
2022-08-05T15:34:35.612Z,36.32
2022-08-05T15:37:06.225Z,36.38
2022-08-05T15:41:02.518Z,36.68
2022-08-05T15:42:55.681Z,36.41
2022-08-05T15:45:10.499Z,36.63
2022-08-05T15:47:41.142Z,36.80
2022-08-05T15:50:09.032Z,36.08
2022-08-05T15:52:53.460Z,36.42
2022-08-05T15:55:24.867Z,36.25
2022-08-05T15:58:09.597Z,36.40
2022-08-05T16:00:57.145Z,36.53
2022-08-05T16:03:30.357Z,35.94
2022-08-05T16:05:59.536Z,35.77
2022-08-05T16:08:30.421Z,35.89
2022-08-05T16:10:58.216Z,35.67
2022-08-05T16:13:32.030Z,35.24
2022-08-05T16:16:01.461Z,35.31
2022-08-05T16:18:30.753Z,35.35
2022-08-05T16:20:57.563Z,35.12
2022-08-05T16:23:24.256Z,34.95
2022-08-05T16:25:55.787Z,35.00
2022-08-05T16:28:24.197Z,35.06
2022-08-05T16:30:52.129Z,34.51
2022-08-05T16:33:19.563Z,34.47
2022-08-05T16:35:49.878Z,34.21
2022-08-05T16:38:25.683Z,34.15
2022-08-05T16:41:00.928Z,34.09
2022-08-05T16:43:33.399Z,34.02
2022-08-05T16:46:04.311Z,33.89
2022-08-05T16:48:35.814Z,33.86
2022-08-05T16:51:08.725Z,33.87
2022-08-05T16:54:02.488Z,33.71
2022-08-05T16:56:25.773Z,33.76
2022-08-05T16:58:52.569Z,33.58
2022-08-05T17:01:20.237Z,33.42
2022-08-05T17:03:47.485Z,33.31
2022-08-05T17:06:16.407Z,33.01
2022-08-05T17:08:53.000Z,32.94
2022-08-05T17:11:25.410Z,32.88
2022-08-05T17:14:00.558Z,32.54
2022-08-05T17:16:37.887Z,32.28
2022-08-05T17:19:07.759Z,32.21
2022-08-05T17:21:37.798Z,31.98
2022-08-05T17:24:27.978Z,31.82
2022-08-05T17:26:58.365Z,31.49
2022-08-05T17:29:33.269Z,31.36
2022-08-05T17:32:06.771Z,31.23
2022-08-05T17:34:35.169Z,31.00
2022-08-05T17:37:01.988Z,30.80
2022-08-05T17:39:34.670Z,30.63
2022-08-05T17:42:18.831Z,30.41
2022-08-05T17:44:50.048Z,30.23
2022-08-05T17:47:22.919Z,29.95
2022-08-05T17:50:00.429Z,29.72
2022-08-05T17:52:32.691Z,29.64
2022-08-05T17:55:00.716Z,29.35
2022-08-05T17:57:29.802Z,29.03
2022-08-05T18:00:03.686Z,28.78
2022-08-05T18:02:34.357Z,28.53
2022-08-05T18:05:06.325Z,28.39
2022-08-05T18:07:41.210Z,28.19
2022-08-05T18:10:10.944Z,27.88
2022-08-05T18:12:38.590Z,27.77
2022-08-05T18:15:06.820Z,27.64
2022-08-05T18:18:00.750Z,27.47
2022-08-05T18:20:29.267Z,27.30
2022-08-05T18:23:00.571Z,27.19
2022-08-05T18:25:35.948Z,27.00
2022-08-05T18:28:05.294Z,26.87
2022-08-05T18:30:33.180Z,26.76
2022-08-05T18:33:01.290Z,26.63
2022-08-05T18:35:59.952Z,26.45
2022-08-05T18:38:19.617Z,26.34
2022-08-05T18:41:57.176Z,26.11
2022-08-05T18:43:42.960Z,26.12
2022-08-05T18:46:15.992Z,25.96
2022-08-05T18:48:51.534Z,25.85
2022-08-05T18:52:05.558Z,25.81
2022-08-05T18:54:28.578Z,25.64
2022-08-05T18:57:00.996Z,25.59
2022-08-05T18:59:43.494Z,25.51
2022-08-05T19:02:28.267Z,25.45
2022-08-05T19:05:02.248Z,25.43
2022-08-05T19:07:47.772Z,25.33
2022-08-05T19:10:14.990Z,25.23
2022-08-05T19:12:43.318Z,25.17
2022-08-05T19:15:56.639Z,25.11
2022-08-05T19:18:09.625Z,25.05
2022-08-05T19:20:41.764Z,25.02
2022-08-05T19:24:04.350Z,24.83
2022-08-05T19:26:01.848Z,24.84
2022-08-05T19:28:31.060Z,24.64
2022-08-05T19:31:00.924Z,24.66
2022-08-05T19:33:35.391Z,24.89
2022-08-05T19:36:09.068Z,24.98
2022-08-05T19:38:36.278Z,25.01
2022-08-05T19:41:09.030Z,24.94
2022-08-05T19:44:06.628Z,24.89
2022-08-05T19:46:29.012Z,24.83
2022-08-05T19:49:03.046Z,24.89
2022-08-05T19:51:59.836Z,24.73
2022-08-05T19:54:25.628Z,24.74
2022-08-05T19:56:56.258Z,24.55
2022-08-05T20:00:00.713Z,24.52
2022-08-05T20:02:09.852Z,24.53
2022-08-05T20:04:37.758Z,24.71
2022-08-05T20:07:10.419Z,24.78
2022-08-05T20:09:53.878Z,24.96
2022-08-05T20:12:22.401Z,25.05
2022-08-05T20:14:52.111Z,25.10
2022-08-05T20:17:23.417Z,25.21
2022-08-05T20:19:56.780Z,25.09
2022-08-05T20:22:26.793Z,25.04
2022-08-05T20:24:55.364Z,25.06
2022-08-05T20:27:27.030Z,24.94
2022-08-05T20:29:58.575Z,24.87
2022-08-05T20:32:26.623Z,24.81
2022-08-05T20:34:53.635Z,24.61
2022-08-05T20:38:04.442Z,24.54
2022-08-05T20:40:07.770Z,24.36
2022-08-05T20:42:34.632Z,24.25
2022-08-05T20:45:02.650Z,24.18
2022-08-05T20:47:31.093Z,24.11
2022-08-05T20:49:59.906Z,24.01
2022-08-05T20:52:28.793Z,23.85
2022-08-05T20:54:59.558Z,23.80
2022-08-05T20:57:44.423Z,23.67
2022-08-05T21:00:40.030Z,23.51
2022-08-05T21:03:06.318Z,23.49
2022-08-05T21:05:47.665Z,23.42
2022-08-05T21:08:21.134Z,23.43
2022-08-05T21:10:53.679Z,23.30
2022-08-05T21:13:26.452Z,23.18
2022-08-05T21:16:07.207Z,23.13
2022-08-05T21:18:34.346Z,23.16
2022-08-05T21:21:02.497Z,23.08
2022-08-05T21:23:29.146Z,22.98
2022-08-05T21:26:04.272Z,22.90
2022-08-05T21:28:47.965Z,22.85
2022-08-05T21:31:18.231Z,22.81
2022-08-05T21:33:47.800Z,22.77
2022-08-05T21:36:19.045Z,22.72
2022-08-05T21:38:54.607Z,22.67
2022-08-05T21:41:21.489Z,22.44
2022-08-05T21:44:01.323Z,22.52
2022-08-05T21:46:31.044Z,22.52
2022-08-05T21:48:59.869Z,22.40
2022-08-05T21:52:22.580Z,22.37
2022-08-05T21:54:13.314Z,22.35
2022-08-05T21:56:44.208Z,22.20
2022-08-05T21:59:23.967Z,22.18
2022-08-05T22:01:54.437Z,22.18
2022-08-05T22:04:25.436Z,22.12
2022-08-05T22:06:52.888Z,22.09
2022-08-05T22:09:21.471Z,21.99
2022-08-05T22:11:48.709Z,21.93
2022-08-05T22:14:33.837Z,21.87
2022-08-05T22:17:06.460Z,21.95
2022-08-05T22:19:57.247Z,21.78
2022-08-05T22:22:27.408Z,21.78
2022-08-05T22:25:18.136Z,21.79
2022-08-05T22:28:10.926Z,21.72
2022-08-05T22:30:44.277Z,21.73
2022-08-05T22:33:58.636Z,21.52
2022-08-05T22:36:14.490Z,21.59
2022-08-05T22:38:42.638Z,21.34
2022-08-05T22:41:10.273Z,21.47
2022-08-05T22:43:37.993Z,21.43
2022-08-05T22:46:11.969Z,21.41
2022-08-05T22:48:40.058Z,21.38
2022-08-05T22:51:07.693Z,21.23
2022-08-05T22:53:35.807Z,21.33
2022-08-05T22:56:02.753Z,21.13
2022-08-05T22:58:29.375Z,21.27
2022-08-05T23:00:57.003Z,21.11
2022-08-05T23:03:58.352Z,21.14
2022-08-05T23:06:10.692Z,21.06
2022-08-05T23:08:37.292Z,21.08
2022-08-05T23:11:05.983Z,20.93
2022-08-05T23:13:35.336Z,20.97
2022-08-05T23:16:03.898Z,20.86
2022-08-05T23:18:30.590Z,20.90
2022-08-05T23:20:58.972Z,20.96
2022-08-05T23:23:26.076Z,20.76
2022-08-05T23:25:56.586Z,20.86
2022-08-05T23:28:29.147Z,20.74
2022-08-05T23:31:16.099Z,20.75
2022-08-05T23:34:04.821Z,20.63
2022-08-05T23:36:38.320Z,20.61
2022-08-05T23:39:05.677Z,20.70
2022-08-05T23:41:34.376Z,20.66
2022-08-05T23:44:08.637Z,20.75
2022-08-05T23:46:37.505Z,20.67
2022-08-05T23:49:16.972Z,20.72
2022-08-05T23:52:07.706Z,20.72
2022-08-05T23:54:38.286Z,20.82
2022-08-05T23:57:06.665Z,20.70
